sensor_id;sensor_type;location;lat;lon;timestamp;P1;durP1;ratioP1;P2;durP2;ratioP2
31974;SDS011;18500;43.618;1.474;2022-09-28T07:36:07;114.35;;;106.97;;
31974;SDS011;18500;43.618;1.474;2022-09-28T07:38:33;269.55;;;250.25;;
31974;SDS011;18500;43.618;1.474;2022-09-28T07:40:59;242.63;;;224.73;;
31974;SDS011;18500;43.618;1.474;2022-09-28T07:43:37;93.40;;;87.40;;
31974;SDS011;18500;43.618;1.474;2022-09-28T07:46:06;103.57;;;97.20;;
31974;SDS011;18500;43.618;1.474;2022-09-28T07:48:35;171.13;;;160.40;;
31974;SDS011;18500;43.618;1.474;2022-09-28T07:51:02;196.18;;;183.45;;
31974;SDS011;18500;43.618;1.474;2022-09-28T07:53:28;105.85;;;99.13;;
31974;SDS011;18500;43.618;1.474;2022-09-28T07:55:58;153.35;;;142.88;;
31974;SDS011;18500;43.618;1.474;2022-09-28T07:58:26;104.32;;;97.95;;
31974;SDS011;18500;43.618;1.474;2022-09-28T08:00:51;140.75;;;132.05;;
31974;SDS011;18500;43.618;1.474;2022-09-28T08:03:18;145.95;;;136.60;;
31974;SDS011;18500;43.618;1.474;2022-09-28T08:05:46;178.95;;;167.98;;
31974;SDS011;18500;43.618;1.474;2022-09-28T08:08:12;128.85;;;120.78;;
31974;SDS011;18500;43.618;1.474;2022-09-28T08:10:40;429.90;;;398.95;;
31974;SDS011;18500;43.618;1.474;2022-09-28T08:13:06;110.93;;;102.97;;
31974;SDS011;18500;43.618;1.474;2022-09-28T08:15:32;89.57;;;83.68;;
31974;SDS011;18500;43.618;1.474;2022-09-28T08:18:05;89.32;;;83.47;;
31974;SDS011;18500;43.618;1.474;2022-09-28T08:20:31;393.98;;;358.52;;
31974;SDS011;18500;43.618;1.474;2022-09-28T08:23:16;500.40;;;453.80;;
31974;SDS011;18500;43.618;1.474;2022-09-28T08:25:48;196.57;;;182.60;;
31974;SDS011;18500;43.618;1.474;2022-09-28T08:28:17;595.33;;;547.58;;
31974;SDS011;18500;43.618;1.474;2022-09-28T08:30:44;645.28;;;592.30;;
31974;SDS011;18500;43.618;1.474;2022-09-28T08:33:11;635.22;;;584.25;;
31974;SDS011;18500;43.618;1.474;2022-09-28T08:35:42;664.15;;;609.97;;
31974;SDS011;18500;43.618;1.474;2022-09-28T08:38:08;402.92;;;376.33;;
31974;SDS011;18500;43.618;1.474;2022-09-28T08:40:43;499.13;;;463.65;;
31974;SDS011;18500;43.618;1.474;2022-09-28T08:46:09;767.70;;;707.47;;
31974;SDS011;18500;43.618;1.474;2022-09-28T08:48:38;693.25;;;641.33;;
31974;SDS011;18500;43.618;1.474;2022-09-28T08:56:59;896.60;;;822.15;;
31974;SDS011;18500;43.618;1.474;2022-09-28T09:02:31;691.92;;;643.33;;
31974;SDS011;18500;43.618;1.474;2022-09-28T09:05:09;838.90;;;772.30;;
31974;SDS011;18500;43.618;1.474;2022-09-28T09:10:37;869.00;;;791.53;;
31974;SDS011;18500;43.618;1.474;2022-09-28T09:13:29;814.50;;;755.10;;
31974;SDS011;18500;43.618;1.474;2022-09-28T09:16:10;864.40;;;797.90;;
31974;SDS011;18500;43.618;1.474;2022-09-28T09:24:26;864.65;;;795.20;;
31974;SDS011;18500;43.618;1.474;2022-09-28T09:27:28;861.40;;;793.83;;
31974;SDS011;18500;43.618;1.474;2022-09-28T09:32:46;828.40;;;766.97;;
31974;SDS011;18500;43.618;1.474;2022-09-28T09:35:52;910.25;;;835.13;;
31974;SDS011;18500;43.618;1.474;2022-09-28T09:54:30;777.28;;;718.67;;
31974;SDS011;18500;43.618;1.474;2022-09-28T09:57:03;881.58;;;801.25;;
31974;SDS011;18500;43.618;1.474;2022-09-28T09:59:35;796.63;;;732.22;;
31974;SDS011;18500;43.618;1.474;2022-09-28T10:02:11;740.00;;;685.33;;
31974;SDS011;18500;43.618;1.474;2022-09-28T10:04:44;850.88;;;773.25;;
31974;SDS011;18500;43.618;1.474;2022-09-28T10:07:57;618.25;;;576.58;;
31974;SDS011;18500;43.618;1.474;2022-09-28T10:10:01;746.38;;;691.22;;
31974;SDS011;18500;43.618;1.474;2022-09-28T10:12:27;899.60;;;779.53;;
31974;SDS011;18500;43.618;1.474;2022-09-28T10:14:55;837.72;;;762.85;;
31974;SDS011;18500;43.618;1.474;2022-09-28T10:17:20;983.75;;;862.67;;
31974;SDS011;18500;43.618;1.474;2022-09-28T10:19:53;997.53;;;884.58;;
31974;SDS011;18500;43.618;1.474;2022-09-28T10:22:21;773.22;;;715.00;;
31974;SDS011;18500;43.618;1.474;2022-09-28T10:24:50;859.42;;;783.63;;
31974;SDS011;18500;43.618;1.474;2022-09-28T10:27:23;776.08;;;719.85;;
31974;SDS011;18500;43.618;1.474;2022-09-28T10:32:41;815.28;;;750.28;;
31974;SDS011;18500;43.618;1.474;2022-09-28T10:40:32;580.03;;;542.38;;
31974;SDS011;18500;43.618;1.474;2022-09-28T10:43:02;450.25;;;422.20;;
31974;SDS011;18500;43.618;1.474;2022-09-28T10:45:35;481.77;;;450.20;;
31974;SDS011;18500;43.618;1.474;2022-09-28T10:48:05;577.28;;;537.85;;
31974;SDS011;18500;43.618;1.474;2022-09-28T10:50:39;350.02;;;328.20;;
31974;SDS011;18500;43.618;1.474;2022-09-28T10:53:10;390.83;;;365.27;;
31974;SDS011;18500;43.618;1.474;2022-09-28T10:55:59;350.40;;;326.08;;
31974;SDS011;18500;43.618;1.474;2022-09-28T10:58:28;384.73;;;359.40;;
31974;SDS011;18500;43.618;1.474;2022-09-28T11:01:15;191.57;;;180.52;;
31974;SDS011;18500;43.618;1.474;2022-09-28T11:03:54;403.90;;;376.02;;
31974;SDS011;18500;43.618;1.474;2022-09-28T11:06:23;163.85;;;154.05;;
31974;SDS011;18500;43.618;1.474;2022-09-28T11:08:52;231.48;;;217.25;;
31974;SDS011;18500;43.618;1.474;2022-09-28T11:11:19;307.17;;;288.25;;
31974;SDS011;18500;43.618;1.474;2022-09-28T11:13:47;251.75;;;233.82;;
31974;SDS011;18500;43.618;1.474;2022-09-28T11:16:18;119.55;;;112.00;;
31974;SDS011;18500;43.618;1.474;2022-09-28T11:18:58;392.90;;;367.10;;
31974;SDS011;18500;43.618;1.474;2022-09-28T11:21:47;394.70;;;365.33;;
31974;SDS011;18500;43.618;1.474;2022-09-28T11:24:20;412.38;;;382.98;;
31974;SDS011;18500;43.618;1.474;2022-09-28T11:26:51;104.20;;;97.93;;
31974;SDS011;18500;43.618;1.474;2022-09-28T11:32:00;135.18;;;126.18;;
31974;SDS011;18500;43.618;1.474;2022-09-28T11:34:32;148.55;;;139.15;;
31974;SDS011;18500;43.618;1.474;2022-09-28T11:40:05;254.65;;;238.50;;
31974;SDS011;18500;43.618;1.474;2022-09-28T11:48:04;100.95;;;94.53;;
31974;SDS011;18500;43.618;1.474;2022-09-28T11:55:40;222.18;;;208.98;;
31974;SDS011;18500;43.618;1.474;2022-09-28T12:00:49;638.35;;;585.78;;
31974;SDS011;18500;43.618;1.474;2022-09-28T12:03:33;478.70;;;442.35;;
31974;SDS011;18500;43.618;1.474;2022-09-28T12:06:05;210.73;;;196.57;;
31974;SDS011;18500;43.618;1.474;2022-09-28T12:08:38;551.42;;;509.88;;
31974;SDS011;18500;43.618;1.474;2022-09-28T12:11:14;150.75;;;141.52;;
31974;SDS011;18500;43.618;1.474;2022-09-28T12:13:45;519.63;;;479.70;;
31974;SDS011;18500;43.618;1.474;2022-09-28T12:21:25;801.15;;;729.00;;
31974;SDS011;18500;43.618;1.474;2022-09-28T12:26:57;678.22;;;619.97;;
31974;SDS011;18500;43.618;1.474;2022-09-28T12:34:53;450.45;;;417.23;;
31974;SDS011;18500;43.618;1.474;2022-09-28T12:43:20;237.68;;;221.07;;
31974;SDS011;18500;43.618;1.474;2022-09-28T12:48:42;471.60;;;426.92;;
31974;SDS011;18500;43.618;1.474;2022-09-28T13:00:29;187.13;;;172.65;;
31974;SDS011;18500;43.618;1.474;2022-09-28T13:05:42;279.20;;;259.85;;
31974;SDS011;18500;43.618;1.474;2022-09-28T13:21:57;351.83;;;332.33;;
31974;SDS011;18500;43.618;1.474;2022-09-28T13:24:40;187.82;;;177.57;;
31974;SDS011;18500;43.618;1.474;2022-09-28T13:27:09;500.25;;;464.08;;
31974;SDS011;18500;43.618;1.474;2022-09-28T13:29:41;398.10;;;373.60;;
31974;SDS011;18500;43.618;1.474;2022-09-28T13:32:08;551.58;;;511.48;;
31974;SDS011;18500;43.618;1.474;2022-09-28T13:34:36;545.05;;;505.25;;
31974;SDS011;18500;43.618;1.474;2022-09-28T13:37:07;663.22;;;613.45;;
31974;SDS011;18500;43.618;1.474;2022-09-28T13:39:46;390.63;;;366.90;;
31974;SDS011;18500;43.618;1.474;2022-09-28T13:55:56;914.88;;;820.70;;
31974;SDS011;18500;43.618;1.474;2022-09-28T14:01:16;769.28;;;708.50;;
31974;SDS011;18500;43.618;1.474;2022-09-28T14:06:33;684.25;;;635.33;;
31974;SDS011;18500;43.618;1.474;2022-09-28T14:16:39;820.90;;;756.67;;
31974;SDS011;18500;43.618;1.474;2022-09-28T14:27:06;591.00;;;553.03;;
31974;SDS011;18500;43.618;1.474;2022-09-28T14:33:14;932.95;;;832.83;;
31974;SDS011;18500;43.618;1.474;2022-09-28T14:36:00;807.47;;;742.55;;
31974;SDS011;18500;43.618;1.474;2022-09-28T14:41:30;666.65;;;621.30;;
31974;SDS011;18500;43.618;1.474;2022-09-28T14:44:00;604.60;;;562.53;;
31974;SDS011;18500;43.618;1.474;2022-09-28T14:54:21;722.10;;;653.75;;
31974;SDS011;18500;43.618;1.474;2022-09-28T14:59:20;410.92;;;379.90;;
31974;SDS011;18500;43.618;1.474;2022-09-28T15:01:49;583.35;;;537.47;;
31974;SDS011;18500;43.618;1.474;2022-09-28T15:04:22;529.42;;;480.35;;
31974;SDS011;18500;43.618;1.474;2022-09-28T15:06:52;190.48;;;178.07;;
31974;SDS011;18500;43.618;1.474;2022-09-28T15:09:28;177.95;;;167.20;;
31974;SDS011;18500;43.618;1.474;2022-09-28T15:12:02;344.73;;;320.42;;
31974;SDS011;18500;43.618;1.474;2022-09-28T15:14:41;239.00;;;224.23;;
31974;SDS011;18500;43.618;1.474;2022-09-28T15:17:11;125.10;;;116.57;;
31974;SDS011;18500;43.618;1.474;2022-09-28T15:22:24;252.15;;;234.07;;
31974;SDS011;18500;43.618;1.474;2022-09-28T15:24:54;198.25;;;185.68;;
31974;SDS011;18500;43.618;1.474;2022-09-28T15:27:23;299.00;;;276.95;;
31974;SDS011;18500;43.618;1.474;2022-09-28T15:30:00;340.33;;;311.88;;
31974;SDS011;18500;43.618;1.474;2022-09-28T15:32:40;168.43;;;156.48;;
31974;SDS011;18500;43.618;1.474;2022-09-28T15:35:14;121.28;;;113.03;;
31974;SDS011;18500;43.618;1.474;2022-09-28T15:37:44;99.47;;;92.90;;
31974;SDS011;18500;43.618;1.474;2022-09-28T15:40:36;169.70;;;158.13;;
31974;SDS011;18500;43.618;1.474;2022-09-28T15:43:18;303.88;;;282.50;;
31974;SDS011;18500;43.618;1.474;2022-09-28T15:48:51;431.42;;;395.80;;
31974;SDS011;18500;43.618;1.474;2022-09-28T15:51:20;122.70;;;115.28;;
31974;SDS011;18500;43.618;1.474;2022-09-28T15:53:57;123.05;;;114.53;;
31974;SDS011;18500;43.618;1.474;2022-09-28T15:56:24;159.05;;;147.65;;
31974;SDS011;18500;43.618;1.474;2022-09-28T16:02:14;165.98;;;155.50;;
31974;SDS011;18500;43.618;1.474;2022-09-28T16:04:48;109.18;;;101.75;;
31974;SDS011;18500;43.618;1.474;2022-09-28T16:09:57;390.80;;;359.98;;
31974;SDS011;18500;43.618;1.474;2022-09-28T16:12:28;109.53;;;102.63;;
31974;SDS011;18500;43.618;1.474;2022-09-28T16:15:05;106.63;;;99.50;;
31974;SDS011;18500;43.618;1.474;2022-09-28T16:17:38;83.07;;;77.80;;
31974;SDS011;18500;43.618;1.474;2022-09-28T16:22:57;107.35;;;100.18;;
31974;SDS011;18500;43.618;1.474;2022-09-28T16:25:30;368.60;;;333.60;;
31974;SDS011;18500;43.618;1.474;2022-09-28T16:27:59;93.18;;;86.47;;
31974;SDS011;18500;43.618;1.474;2022-09-28T16:30:29;97.45;;;91.15;;
31974;SDS011;18500;43.618;1.474;2022-09-28T16:33:00;164.48;;;153.48;;
31974;SDS011;18500;43.618;1.474;2022-09-28T16:38:03;80.57;;;74.93;;
31974;SDS011;18500;43.618;1.474;2022-09-28T16:40:38;116.05;;;108.32;;
31974;SDS011;18500;43.618;1.474;2022-09-28T16:43:23;191.57;;;177.82;;
31974;SDS011;18500;43.618;1.474;2022-09-28T16:45:51;187.13;;;174.73;;
31974;SDS011;18500;43.618;1.474;2022-09-28T16:48:44;265.45;;;246.95;;
31974;SDS011;18500;43.618;1.474;2022-09-28T16:51:15;106.32;;;98.85;;
31974;SDS011;18500;43.618;1.474;2022-09-28T16:53:41;172.75;;;161.25;;
31974;SDS011;18500;43.618;1.474;2022-09-28T16:56:26;395.70;;;362.27;;
31974;SDS011;18500;43.618;1.474;2022-09-28T16:58:53;94.47;;;87.82;;
31974;SDS011;18500;43.618;1.474;2022-09-28T17:01:19;93.10;;;86.55;;
31974;SDS011;18500;43.618;1.474;2022-09-28T17:03:48;92.32;;;85.90;;
31974;SDS011;18500;43.618;1.474;2022-09-28T17:06:15;242.38;;;223.90;;
31974;SDS011;18500;43.618;1.474;2022-09-28T17:08:43;189.98;;;175.38;;
31974;SDS011;18500;43.618;1.474;2022-09-28T17:11:11;129.70;;;121.13;;
31974;SDS011;18500;43.618;1.474;2022-09-28T17:13:39;388.13;;;355.83;;
31974;SDS011;18500;43.618;1.474;2022-09-28T17:16:15;601.97;;;551.20;;
31974;SDS011;18500;43.618;1.474;2022-09-28T17:18:44;206.55;;;192.93;;
31974;SDS011;18500;43.618;1.474;2022-09-28T17:21:11;202.15;;;189.70;;
31974;SDS011;18500;43.618;1.474;2022-09-28T17:23:39;291.88;;;270.67;;
31974;SDS011;18500;43.618;1.474;2022-09-28T17:26:42;494.90;;;451.52;;
31974;SDS011;18500;43.618;1.474;2022-09-28T17:29:00;247.23;;;230.38;;
31974;SDS011;18500;43.618;1.474;2022-09-28T17:31:29;168.27;;;156.93;;
31974;SDS011;18500;43.618;1.474;2022-09-28T17:33:55;132.30;;;123.43;;
31974;SDS011;18500;43.618;1.474;2022-09-28T17:36:20;295.45;;;276.15;;
31974;SDS011;18500;43.618;1.474;2022-09-28T17:38:47;122.60;;;114.55;;
31974;SDS011;18500;43.618;1.474;2022-09-28T17:41:18;168.98;;;154.48;;
31974;SDS011;18500;43.618;1.474;2022-09-28T17:43:44;194.75;;;181.40;;
31974;SDS011;18500;43.618;1.474;2022-09-28T17:46:32;241.93;;;224.43;;
31974;SDS011;18500;43.618;1.474;2022-09-28T17:48:59;71.97;;;66.40;;
31974;SDS011;18500;43.618;1.474;2022-09-28T17:51:26;122.50;;;113.32;;
31974;SDS011;18500;43.618;1.474;2022-09-28T17:53:54;184.73;;;171.40;;
31974;SDS011;18500;43.618;1.474;2022-09-28T17:56:21;79.00;;;72.70;;
31974;SDS011;18500;43.618;1.474;2022-09-28T17:58:47;128.23;;;118.75;;
31974;SDS011;18500;43.618;1.474;2022-09-28T18:01:13;178.85;;;166.02;;
31974;SDS011;18500;43.618;1.474;2022-09-28T18:03:39;212.63;;;197.50;;
31974;SDS011;18500;43.618;1.474;2022-09-28T18:06:06;82.60;;;76.15;;
31974;SDS011;18500;43.618;1.474;2022-09-28T18:08:38;109.28;;;101.57;;
31974;SDS011;18500;43.618;1.474;2022-09-28T18:11:05;122.20;;;113.20;;
31974;SDS011;18500;43.618;1.474;2022-09-28T18:13:30;72.53;;;67.43;;
31974;SDS011;18500;43.618;1.474;2022-09-28T18:15:56;131.30;;;121.57;;
31974;SDS011;18500;43.618;1.474;2022-09-28T18:18:22;133.15;;;123.45;;
31974;SDS011;18500;43.618;1.474;2022-09-28T18:20:48;83.13;;;76.50;;
31974;SDS011;18500;43.618;1.474;2022-09-28T18:23:14;282.77;;;261.00;;
31974;SDS011;18500;43.618;1.474;2022-09-28T18:25:41;374.55;;;344.10;;
31974;SDS011;18500;43.618;1.474;2022-09-28T18:28:11;117.65;;;109.22;;
31974;SDS011;18500;43.618;1.474;2022-09-28T18:30:38;70.45;;;64.40;;
31974;SDS011;18500;43.618;1.474;2022-09-28T18:33:06;203.32;;;189.35;;
31974;SDS011;18500;43.618;1.474;2022-09-28T18:35:32;186.45;;;171.70;;
31974;SDS011;18500;43.618;1.474;2022-09-28T18:37:57;183.75;;;170.30;;
31974;SDS011;18500;43.618;1.474;2022-09-28T18:40:23;547.17;;;496.73;;
31974;SDS011;18500;43.618;1.474;2022-09-28T18:42:49;375.38;;;344.90;;
31974;SDS011;18500;43.618;1.474;2022-09-28T18:45:15;78.25;;;70.70;;
31974;SDS011;18500;43.618;1.474;2022-09-28T18:47:42;152.35;;;141.50;;
31974;SDS011;18500;43.618;1.474;2022-09-28T18:50:09;54.35;;;48.80;;
31974;SDS011;18500;43.618;1.474;2022-09-28T18:52:42;168.95;;;154.98;;
31974;SDS011;18500;43.618;1.474;2022-09-28T18:55:10;70.45;;;64.53;;
31974;SDS011;18500;43.618;1.474;2022-09-28T18:57:36;246.73;;;229.20;;
31974;SDS011;18500;43.618;1.474;2022-09-28T19:00:06;59.13;;;53.78;;
31974;SDS011;18500;43.618;1.474;2022-09-28T19:02:34;47.25;;;43.05;;
31974;SDS011;18500;43.618;1.474;2022-09-28T19:05:00;52.63;;;47.70;;
31974;SDS011;18500;43.618;1.474;2022-09-28T19:07:26;111.97;;;103.72;;
31974;SDS011;18500;43.618;1.474;2022-09-28T19:09:52;51.55;;;47.40;;
31974;SDS011;18500;43.618;1.474;2022-09-28T19:12:18;60.65;;;53.25;;
31974;SDS011;18500;43.618;1.474;2022-09-28T19:14:44;73.32;;;66.32;;
31974;SDS011;18500;43.618;1.474;2022-09-28T19:17:09;321.45;;;291.38;;
31974;SDS011;18500;43.618;1.474;2022-09-28T19:19:36;56.65;;;50.85;;
31974;SDS011;18500;43.618;1.474;2022-09-28T19:22:02;42.17;;;37.55;;
31974;SDS011;18500;43.618;1.474;2022-09-28T19:24:28;55.78;;;49.95;;
31974;SDS011;18500;43.618;1.474;2022-09-28T19:26:53;74.22;;;68.22;;
31974;SDS011;18500;43.618;1.474;2022-09-28T19:29:19;174.00;;;161.05;;
31974;SDS011;18500;43.618;1.474;2022-09-28T19:31:45;281.65;;;261.27;;
31974;SDS011;18500;43.618;1.474;2022-09-28T19:34:11;87.28;;;79.75;;
31974;SDS011;18500;43.618;1.474;2022-09-28T19:36:37;91.25;;;84.07;;
31974;SDS011;18500;43.618;1.474;2022-09-28T19:39:03;73.55;;;67.45;;
31974;SDS011;18500;43.618;1.474;2022-09-28T19:41:31;101.45;;;93.75;;
31974;SDS011;18500;43.618;1.474;2022-09-28T19:47:11;132.88;;;122.47;;
31974;SDS011;18500;43.618;1.474;2022-09-28T19:49:37;55.42;;;50.28;;
31974;SDS011;18500;43.618;1.474;2022-09-28T19:52:05;114.90;;;105.45;;
31974;SDS011;18500;43.618;1.474;2022-09-28T19:54:39;75.03;;;68.28;;
31974;SDS011;18500;43.618;1.474;2022-09-28T19:57:09;110.45;;;101.38;;
31974;SDS011;18500;43.618;1.474;2022-09-28T19:59:36;74.35;;;68.22;;
31974;SDS011;18500;43.618;1.474;2022-09-28T20:02:03;180.45;;;166.55;;
31974;SDS011;18500;43.618;1.474;2022-09-28T20:04:31;129.27;;;119.18;;
31974;SDS011;18500;43.618;1.474;2022-09-28T20:06:57;120.32;;;111.03;;
31974;SDS011;18500;43.618;1.474;2022-09-28T20:09:22;154.00;;;142.57;;
31974;SDS011;18500;43.618;1.474;2022-09-28T20:11:48;148.43;;;137.40;;
31974;SDS011;18500;43.618;1.474;2022-09-28T20:14:15;282.65;;;260.63;;
31974;SDS011;18500;43.618;1.474;2022-09-28T20:16:42;65.25;;;59.88;;
31974;SDS011;18500;43.618;1.474;2022-09-28T20:19:10;260.17;;;241.23;;
31974;SDS011;18500;43.618;1.474;2022-09-28T20:21:36;60.38;;;55.50;;
31974;SDS011;18500;43.618;1.474;2022-09-28T20:24:01;61.90;;;57.35;;
31974;SDS011;18500;43.618;1.474;2022-09-28T20:26:28;67.20;;;61.67;;
31974;SDS011;18500;43.618;1.474;2022-09-28T20:28:54;132.55;;;124.03;;
31974;SDS011;18500;43.618;1.474;2022-09-28T20:31:21;191.00;;;177.40;;
31974;SDS011;18500;43.618;1.474;2022-09-28T20:33:49;584.55;;;536.00;;
31974;SDS011;18500;43.618;1.474;2022-09-28T20:36:19;486.80;;;443.42;;
31974;SDS011;18500;43.618;1.474;2022-09-28T20:38:49;674.83;;;539.67;;
31974;SDS011;18500;43.618;1.474;2022-09-28T20:41:17;768.97;;;701.08;;
31974;SDS011;18500;43.618;1.474;2022-09-28T20:43:44;305.08;;;280.70;;
31974;SDS011;18500;43.618;1.474;2022-09-28T20:46:11;108.15;;;101.28;;
31974;SDS011;18500;43.618;1.474;2022-09-28T20:48:37;650.17;;;584.65;;
31974;SDS011;18500;43.618;1.474;2022-09-28T20:53:36;111.38;;;104.03;;
31974;SDS011;18500;43.618;1.474;2022-09-28T20:56:04;92.07;;;86.22;;
31974;SDS011;18500;43.618;1.474;2022-09-28T20:58:48;99.68;;;93.63;;
31974;SDS011;18500;43.618;1.474;2022-09-28T21:03:43;105.60;;;98.60;;
31974;SDS011;18500;43.618;1.474;2022-09-28T21:06:13;118.85;;;110.90;;
31974;SDS011;18500;43.618;1.474;2022-09-28T21:08:41;65.70;;;61.40;;
31974;SDS011;18500;43.618;1.474;2022-09-28T21:11:08;305.83;;;284.83;;
31974;SDS011;18500;43.618;1.474;2022-09-28T21:13:38;70.88;;;65.80;;
31974;SDS011;18500;43.618;1.474;2022-09-28T21:16:10;90.40;;;85.00;;
31974;SDS011;18500;43.618;1.474;2022-09-28T21:18:37;63.80;;;59.55;;
31974;SDS011;18500;43.618;1.474;2022-09-28T21:21:05;81.95;;;76.80;;
31974;SDS011;18500;43.618;1.474;2022-09-28T21:23:32;60.65;;;56.42;;
31974;SDS011;18500;43.618;1.474;2022-09-28T21:26:08;96.47;;;90.22;;
